createdAt,value
2018-06-09T00:01:07.591Z,61.27
2018-06-09T00:03:37.979Z,59.60
2018-06-09T00:06:07.831Z,70.13
2018-06-09T00:08:37.580Z,72.50
2018-06-09T00:11:07.386Z,75.00
2018-06-09T00:13:37.318Z,74.37
2018-06-09T00:16:07.459Z,78.37
2018-06-09T00:18:37.415Z,72.97
2018-06-09T00:21:07.266Z,78.07
2018-06-09T00:23:37.305Z,75.00
2018-06-09T00:26:07.521Z,83.13
2018-06-09T00:28:37.216Z,83.53
2018-06-09T00:31:08.447Z,81.70
2018-06-09T00:33:37.896Z,89.43
2018-06-09T00:36:07.323Z,83.90
2018-06-09T00:38:37.187Z,89.87
2018-06-09T00:41:06.822Z,85.17
2018-06-09T00:43:37.237Z,85.47
2018-06-09T00:46:07.486Z,97.80
2018-06-09T00:48:37.521Z,86.40
2018-06-09T00:51:08.097Z,85.87
2018-06-09T00:53:38.065Z,85.17
2018-06-09T00:59:04.053Z,81.47
2018-06-09T01:01:35.145Z,93.37
2018-06-09T01:04:07.528Z,88.30
2018-06-09T01:06:37.943Z,84.73
2018-06-09T01:09:11.163Z,91.30
2018-06-09T01:11:40.698Z,96.10
2018-06-09T01:14:10.566Z,97.80
2018-06-09T01:16:40.414Z,95.07
2018-06-09T01:19:14.130Z,94.43
2018-06-09T01:24:32.619Z,94.40
2018-06-09T01:27:05.151Z,91.93
2018-06-09T01:29:36.568Z,92.37
2018-06-09T01:32:06.904Z,98.63
2018-06-09T01:34:36.931Z,101.80
2018-06-09T01:37:07.371Z,101.80
2018-06-09T01:39:37.017Z,100.03
2018-06-09T01:42:07.516Z,102.47
2018-06-09T01:44:37.654Z,97.47
2018-06-09T01:47:07.776Z,104.57
2018-06-09T01:49:37.415Z,107.10
2018-06-09T01:52:08.096Z,99.43
2018-06-09T01:54:38.323Z,116.03
2018-06-09T01:57:07.877Z,108.00
2018-06-09T01:59:38.974Z,109.27
2018-06-09T02:02:08.768Z,100.87
2018-06-09T02:04:38.779Z,99.80
2018-06-09T02:07:09.009Z,101.77
2018-06-09T02:09:38.348Z,100.93
2018-06-09T02:12:08.058Z,103.70
2018-06-09T02:14:39.498Z,103.40
2018-06-09T02:17:09.427Z,101.97
2018-06-09T02:19:39.254Z,96.50
2018-06-09T02:22:09.121Z,109.60
2018-06-09T02:24:38.844Z,109.33
2018-06-09T02:27:08.288Z,108.37
2018-06-09T02:29:37.811Z,105.40
2018-06-09T02:32:08.542Z,115.10
2018-06-09T02:34:38.070Z,113.17
2018-06-09T02:37:08.064Z,119.90
2018-06-09T02:39:38.007Z,113.90
2018-06-09T02:42:07.604Z,117.37
2018-06-09T02:44:37.474Z,128.47
2018-06-09T02:47:07.221Z,122.07
2018-06-09T02:49:37.056Z,118.50
2018-06-09T02:52:06.902Z,125.90
2018-06-09T02:54:37.353Z,115.00
2018-06-09T02:57:07.983Z,125.60
2018-06-09T02:59:37.660Z,123.97
2018-06-09T03:02:07.647Z,122.20
2018-06-09T03:04:37.395Z,124.70
2018-06-09T03:07:07.186Z,123.00
2018-06-09T03:09:37.012Z,122.70
2018-06-09T03:12:07.185Z,117.03
2018-06-09T03:14:36.589Z,104.40
2018-06-09T03:17:06.537Z,103.20
2018-06-09T03:19:35.786Z,109.37
2018-06-09T03:22:05.637Z,93.23
2018-06-09T03:24:35.904Z,93.97
2018-06-09T03:27:06.347Z,103.97
2018-06-09T03:29:37.286Z,103.20
2018-06-09T03:32:06.634Z,100.00
2018-06-09T03:34:38.092Z,87.67
2018-06-09T03:37:07.640Z,97.57
2018-06-09T03:39:37.388Z,91.03
2018-06-09T03:42:07.210Z,96.90
2018-06-09T03:44:36.959Z,77.40
2018-06-09T03:47:06.790Z,91.10
2018-06-09T03:49:36.568Z,94.60
2018-06-09T03:52:06.672Z,97.37
2018-06-09T03:54:36.737Z,100.00
2018-06-09T03:57:07.221Z,96.83
2018-06-09T03:59:36.583Z,102.07
2018-06-09T04:02:06.160Z,100.70
2018-06-09T04:04:35.740Z,98.53
2018-06-09T04:07:05.473Z,103.10
2018-06-09T04:09:35.287Z,90.43
2018-06-09T04:12:05.335Z,91.23
2018-06-09T04:14:35.805Z,92.27
2018-06-09T04:17:05.684Z,84.87
2018-06-09T04:19:35.844Z,84.13
2018-06-09T04:22:06.630Z,89.80
2018-06-09T04:24:36.482Z,78.03
2018-06-09T04:27:06.174Z,82.83
2018-06-09T04:29:36.945Z,93.60
2018-06-09T04:32:07.235Z,78.00
2018-06-09T04:34:37.446Z,83.10
2018-06-09T04:37:08.747Z,74.30
2018-06-09T04:39:38.287Z,93.80
2018-06-09T04:42:07.466Z,74.93
2018-06-09T04:44:36.598Z,76.17
2018-06-09T04:47:06.939Z,75.23
2018-06-09T04:49:36.910Z,78.27
2018-06-09T04:52:07.272Z,72.73
2018-06-09T04:54:37.099Z,79.00
2018-06-09T04:57:06.712Z,80.30
2018-06-09T04:59:36.449Z,86.13
2018-06-09T05:02:06.845Z,71.50
2018-06-09T05:04:36.848Z,82.13
2018-06-09T05:07:08.493Z,77.00
2018-06-09T05:09:39.839Z,78.97
2018-06-09T05:12:09.603Z,79.10
2018-06-09T05:14:39.442Z,72.33
2018-06-09T05:17:10.064Z,88.87
2018-06-09T05:19:39.544Z,74.47
2018-06-09T05:22:08.961Z,75.00
2018-06-09T05:24:38.593Z,78.37
2018-06-09T05:27:08.063Z,80.77
2018-06-09T05:29:37.698Z,80.60
2018-06-09T05:32:07.395Z,80.33
2018-06-09T05:34:37.523Z,76.13
2018-06-09T05:37:07.327Z,89.90
2018-06-09T05:39:36.694Z,83.50
2018-06-09T05:42:06.393Z,87.57
2018-06-09T05:44:36.755Z,78.67
2018-06-09T05:47:07.137Z,68.87
2018-06-09T05:49:38.277Z,78.27
2018-06-09T05:52:08.936Z,77.13
2018-06-09T05:54:38.766Z,67.07
2018-06-09T05:57:08.689Z,76.03
2018-06-09T05:59:38.061Z,75.13
2018-06-09T06:02:07.570Z,88.20
2018-06-09T06:04:37.167Z,76.70
2018-06-09T06:07:09.753Z,77.73
2018-06-09T06:09:39.148Z,84.30
2018-06-09T06:12:08.858Z,88.93
2018-06-09T06:14:38.368Z,76.10
2018-06-09T06:17:07.435Z,77.53
2018-06-09T06:19:36.500Z,86.33
2018-06-09T06:22:06.160Z,83.07
2018-06-09T06:24:36.238Z,75.57
2018-06-09T06:27:05.403Z,82.60
2018-06-09T06:29:34.752Z,76.57
2018-06-09T06:32:04.888Z,79.33
2018-06-09T06:34:33.990Z,71.17
2018-06-09T06:37:04.909Z,72.57
2018-06-09T06:39:34.948Z,81.93
2018-06-09T06:42:04.420Z,76.60
2018-06-09T06:44:39.023Z,79.37
2018-06-09T06:47:08.531Z,81.13
2018-06-09T06:49:38.778Z,74.93
2018-06-09T06:52:08.655Z,74.83
2018-06-09T06:54:47.001Z,81.40
2018-06-09T06:59:51.708Z,69.70
2018-06-09T07:02:32.821Z,76.90
2018-06-09T07:05:04.923Z,80.80
2018-06-09T07:07:36.673Z,68.87
2018-06-09T07:10:06.954Z,71.97
2018-06-09T07:12:36.507Z,69.63
2018-06-09T07:15:11.356Z,65.93
2018-06-09T07:17:42.508Z,75.27
2018-06-09T07:20:11.299Z,79.53
2018-06-09T07:22:40.429Z,70.43
2018-06-09T07:25:09.435Z,65.80
2018-06-09T07:27:39.368Z,72.63
2018-06-09T07:30:36.498Z,66.20
2018-06-09T07:36:00.178Z,65.80
2018-06-09T07:38:33.730Z,62.20
2018-06-09T07:41:06.777Z,67.30
2018-06-09T07:43:40.746Z,59.10
2018-06-09T07:46:10.918Z,59.77
2018-06-09T07:48:40.822Z,51.23
2018-06-09T07:51:10.633Z,53.40
2018-06-09T07:53:42.792Z,53.47
2018-06-09T08:04:42.255Z,54.53
2018-06-09T08:07:15.071Z,47.80
2018-06-09T08:09:44.616Z,55.10
2018-06-09T08:12:14.206Z,49.60
2018-06-09T08:14:51.303Z,51.23
2018-06-09T08:17:29.914Z,46.20
2018-06-09T08:20:07.707Z,47.23
2018-06-09T08:22:42.515Z,46.23
2018-06-09T08:25:13.021Z,41.57
2018-06-09T08:27:42.553Z,43.07
2018-06-09T08:30:12.153Z,38.10
2018-06-09T08:32:41.553Z,40.93
2018-06-09T08:35:12.038Z,50.53
2018-06-09T08:37:42.537Z,38.13
2018-06-09T08:40:11.838Z,43.13
2018-06-09T08:42:43.649Z,34.87
2018-06-09T08:45:33.637Z,31.97
2018-06-09T08:48:06.473Z,37.93
2018-06-09T08:50:38.119Z,48.47
2018-06-09T08:53:08.015Z,38.57
2018-06-09T08:55:38.338Z,33.87
2018-06-09T08:58:07.896Z,42.40
2018-06-09T09:00:40.030Z,33.43
2018-06-09T09:03:09.733Z,34.47
2018-06-09T09:05:40.847Z,36.77
2018-06-09T09:08:11.122Z,35.30
2018-06-09T09:13:35.016Z,37.50
2018-06-09T09:16:09.391Z,29.57
2018-06-09T09:18:39.473Z,28.00
2018-06-09T09:21:11.248Z,27.77
2018-06-09T09:23:41.495Z,31.73
2018-06-09T09:27:39.483Z,31.20
2018-06-09T09:30:10.797Z,25.57
2018-06-09T09:32:41.614Z,38.73
2018-06-09T09:35:11.996Z,25.73
2018-06-09T09:37:43.096Z,24.97
2018-06-09T09:40:13.326Z,26.77
2018-06-09T09:42:44.424Z,31.63
2018-06-09T09:45:16.506Z,26.27
2018-06-09T09:48:01.847Z,27.83
2018-06-09T09:50:35.076Z,28.73
2018-06-09T09:53:05.356Z,29.30
2018-06-09T09:55:38.738Z,26.80
2018-06-09T09:58:08.085Z,35.87
2018-06-09T10:00:55.888Z,34.40
2018-06-09T10:03:32.610Z,24.23
2018-06-09T10:06:03.389Z,25.90
2018-06-09T10:08:32.737Z,25.07
2018-06-09T10:11:03.646Z,23.33
2018-06-09T10:13:35.377Z,24.57
2018-06-09T10:16:06.577Z,24.50
2018-06-09T10:18:36.828Z,20.63
2018-06-09T10:21:06.297Z,20.80
2018-06-09T10:23:38.057Z,24.33
2018-06-09T10:26:07.570Z,25.63
2018-06-09T10:31:35.332Z,26.53
2018-06-09T10:34:07.153Z,27.77
2018-06-09T10:36:37.152Z,20.80
2018-06-09T10:39:09.704Z,21.50
2018-06-09T10:41:40.613Z,27.97
2018-06-09T10:44:10.755Z,25.17
2018-06-09T10:49:38.093Z,29.93
2018-06-09T10:52:11.413Z,34.60
2018-06-09T11:00:31.464Z,30.60
2018-06-09T11:03:03.570Z,31.30
2018-06-09T11:05:35.157Z,32.10
2018-06-09T11:08:06.327Z,30.20
2018-06-09T11:10:39.655Z,29.60
2018-06-09T11:13:32.498Z,29.47
2018-06-09T11:16:38.846Z,30.57
2018-06-09T11:19:09.834Z,31.23
2018-06-09T11:29:29.983Z,33.97
2018-06-09T11:32:03.666Z,33.30
2018-06-09T11:34:39.389Z,27.40
2018-06-09T11:40:10.880Z,29.90
2018-06-09T11:43:09.709Z,27.70
2018-06-09T11:45:40.132Z,28.33
2018-06-09T11:53:51.951Z,29.60
2018-06-09T11:56:37.244Z,26.13
2018-06-09T11:59:09.133Z,28.07
2018-06-09T12:04:37.781Z,24.73
2018-06-09T12:07:08.062Z,26.10
2018-06-09T12:09:43.454Z,18.13
2018-06-09T12:12:14.222Z,21.13
2018-06-09T12:15:03.823Z,20.00
2018-06-09T12:28:03.347Z,17.83
2018-06-09T12:30:34.715Z,20.90
2018-06-09T12:33:10.155Z,21.47
2018-06-09T12:35:42.084Z,24.40
2018-06-09T12:38:11.975Z,19.37
2018-06-09T12:40:44.308Z,21.73
2018-06-09T12:43:14.048Z,19.70
2018-06-09T12:45:46.437Z,20.13
2018-06-09T12:48:18.758Z,22.57
2018-06-09T12:50:50.728Z,18.00
2018-06-09T12:53:22.636Z,18.83
2018-06-09T12:55:59.160Z,20.00
2018-06-09T12:58:29.149Z,17.73
2018-06-09T13:00:58.257Z,18.20
2018-06-09T13:03:34.774Z,16.87
2018-06-09T13:06:11.119Z,15.43
2018-06-09T13:08:48.945Z,19.80
2018-06-09T13:11:21.620Z,18.77
2018-06-09T13:13:56.900Z,16.23
2018-06-09T13:16:29.781Z,17.80
2018-06-09T13:19:04.331Z,21.50
2018-06-09T13:21:35.273Z,20.23
2018-06-09T13:24:08.840Z,19.87
2018-06-09T13:26:38.612Z,19.20
2018-06-09T13:29:14.664Z,19.27
2018-06-09T13:31:44.407Z,16.30
2018-06-09T13:34:14.340Z,17.70
2018-06-09T13:36:43.711Z,23.30
2018-06-09T13:39:13.192Z,18.47
2018-06-09T13:42:03.560Z,17.90
2018-06-09T13:44:38.311Z,17.63
2018-06-09T13:47:10.176Z,16.30
2018-06-09T13:49:44.777Z,16.93
2018-06-09T13:52:33.060Z,18.13
2018-06-09T13:55:07.715Z,14.97
2018-06-09T13:57:42.693Z,16.03
2018-06-09T14:00:14.247Z,15.83
2018-06-09T14:02:43.755Z,15.10
2018-06-09T14:05:12.951Z,16.40
2018-06-09T14:07:43.175Z,27.27
2018-06-09T14:10:13.536Z,35.43
2018-06-09T14:12:46.021Z,32.07
2018-06-09T14:15:22.100Z,35.90
2018-06-09T14:17:58.041Z,40.90
2018-06-09T14:20:32.344Z,34.60
2018-06-09T14:23:03.020Z,35.93
2018-06-09T14:25:32.851Z,33.10
2018-06-09T14:28:04.271Z,31.60
2018-06-09T14:30:33.887Z,36.90
2018-06-09T14:33:05.661Z,36.27
2018-06-09T14:35:35.651Z,35.47
2018-06-09T14:38:05.311Z,38.47
2018-06-09T14:40:37.413Z,36.87
2018-06-09T14:43:08.116Z,38.67
2018-06-09T14:45:37.684Z,35.37
2018-06-09T14:48:07.492Z,54.20
2018-06-09T14:50:38.104Z,41.03
2018-06-09T14:53:07.816Z,63.03
2018-06-09T14:55:41.232Z,38.33
2018-06-09T14:58:10.543Z,46.33
2018-06-09T15:00:40.384Z,43.77
2018-06-09T15:03:10.329Z,46.57
2018-06-09T15:05:40.525Z,47.27
2018-06-09T15:08:11.477Z,63.43
2018-06-09T15:10:41.278Z,63.97
2018-06-09T15:13:10.652Z,65.27
2018-06-09T15:15:40.577Z,60.93
2018-06-09T15:18:17.889Z,75.90
2018-06-09T15:20:59.472Z,77.90
2018-06-09T15:23:28.889Z,73.27
2018-06-09T15:26:00.248Z,75.80
2018-06-09T15:28:33.446Z,74.60
2018-06-09T15:31:04.128Z,70.47
2018-06-09T15:33:33.650Z,88.33
2018-06-09T15:36:05.949Z,81.60
2018-06-09T15:38:37.402Z,89.83
2018-06-09T15:41:06.719Z,83.53
2018-06-09T15:43:38.458Z,80.23
2018-06-09T15:46:08.071Z,82.63
2018-06-09T15:48:38.944Z,89.30
2018-06-09T15:51:13.545Z,87.10
2018-06-09T15:53:44.302Z,83.23
2018-06-09T15:56:14.092Z,81.20
2018-06-09T15:58:42.932Z,79.50
2018-06-09T16:01:12.116Z,88.17
2018-06-09T16:03:41.487Z,92.70
2018-06-09T16:06:34.513Z,83.53
2018-06-09T16:09:05.516Z,82.73
2018-06-09T16:11:35.451Z,82.60
2018-06-09T16:14:06.204Z,91.20
2018-06-09T16:16:37.187Z,86.10
2018-06-09T16:19:07.784Z,80.07
2018-06-09T16:21:38.104Z,92.77
2018-06-09T16:24:06.987Z,75.90
2018-06-09T16:26:36.835Z,86.97
2018-06-09T16:29:07.803Z,78.23
2018-06-09T16:31:37.237Z,89.83
2018-06-09T16:34:06.238Z,85.00
2018-06-09T16:36:40.030Z,80.50
2018-06-09T16:39:18.617Z,82.07
2018-06-09T16:41:52.610Z,74.93
2018-06-09T16:44:23.564Z,73.73
2018-06-09T16:47:00.810Z,80.47
2018-06-09T16:49:33.690Z,78.73
2018-06-09T16:52:03.449Z,82.43
2018-06-09T16:54:33.279Z,81.47
2018-06-09T16:57:02.700Z,70.60
2018-06-09T16:59:33.460Z,87.43
2018-06-09T17:02:05.458Z,80.27
2018-06-09T17:04:39.646Z,72.77
2018-06-09T17:07:30.360Z,83.30
2018-06-09T17:10:02.448Z,73.17
2018-06-09T17:12:33.533Z,86.13
2018-06-09T17:15:04.062Z,90.40
2018-06-09T17:17:33.442Z,91.43
2018-06-09T17:20:04.054Z,62.53
2018-06-09T17:22:33.702Z,67.27
2018-06-09T17:25:03.450Z,67.80
2018-06-09T17:27:33.396Z,67.43
2018-06-09T17:30:02.808Z,64.50
2018-06-09T17:32:32.674Z,72.03
2018-06-09T17:35:02.073Z,66.70
2018-06-09T17:37:35.331Z,56.10
2018-06-09T17:40:05.471Z,58.10
2018-06-09T17:42:35.822Z,54.93
2018-06-09T17:45:06.154Z,43.27
2018-06-09T17:47:36.014Z,48.07
2018-06-09T17:50:05.591Z,43.03
2018-06-09T17:52:35.852Z,54.13
2018-06-09T17:55:06.208Z,54.83
2018-06-09T17:57:57.406Z,41.20
2018-06-09T18:00:30.287Z,47.27
2018-06-09T18:03:08.770Z,46.87
2018-06-09T18:08:25.304Z,46.67
2018-06-09T18:11:01.218Z,40.70
2018-06-09T18:13:33.780Z,44.03
2018-06-09T18:16:24.969Z,40.20
2018-06-09T18:19:00.881Z,43.30
2018-06-09T18:21:36.851Z,43.67
2018-06-09T18:24:06.705Z,36.50
2018-06-09T18:26:36.136Z,39.73
2018-06-09T18:29:07.880Z,43.30
2018-06-09T18:31:42.755Z,45.43
2018-06-09T18:34:23.833Z,43.37
2018-06-09T18:36:58.380Z,41.17
2018-06-09T18:39:27.885Z,37.00
2018-06-09T18:41:57.366Z,42.97
2018-06-09T18:44:27.518Z,51.57
2018-06-09T18:47:01.684Z,42.67
2018-06-09T18:49:31.992Z,38.03
2018-06-09T18:52:02.405Z,42.00
2018-06-09T18:54:31.644Z,45.83
2018-06-09T18:57:01.929Z,49.57
2018-06-09T19:02:11.348Z,47.27
2018-06-09T19:04:58.196Z,47.13
2018-06-09T19:07:27.334Z,44.57
2018-06-09T19:09:58.458Z,49.00
2018-06-09T19:12:29.439Z,51.43
2018-06-09T19:14:59.330Z,54.40
2018-06-09T19:17:29.547Z,40.97
2018-06-09T19:20:02.928Z,62.03
2018-06-09T19:22:33.440Z,54.20
2018-06-09T19:25:03.351Z,57.73
2018-06-09T19:27:32.911Z,49.67
2018-06-09T19:30:03.122Z,44.70
2018-06-09T19:32:34.253Z,49.90
2018-06-09T19:35:04.821Z,49.13
2018-06-09T19:37:35.664Z,40.90
2018-06-09T19:40:05.869Z,46.13
2018-06-09T19:42:35.491Z,47.20
2018-06-09T19:45:06.503Z,39.97
2018-06-09T19:47:37.765Z,44.63
2018-06-09T19:50:07.500Z,47.27
2018-06-09T19:52:37.752Z,42.73
2018-06-09T19:55:09.993Z,41.90
2018-06-09T19:57:41.413Z,39.33
2018-06-09T20:00:11.735Z,50.03
2018-06-09T20:02:40.854Z,40.97
2018-06-09T20:05:13.287Z,45.27
2018-06-09T20:07:43.412Z,42.63
2018-06-09T20:13:34.982Z,41.07
2018-06-09T20:16:06.086Z,44.87
2018-06-09T20:18:36.103Z,49.63
2018-06-09T20:21:06.234Z,45.23
2018-06-09T20:23:38.528Z,40.10
2018-06-09T20:26:10.718Z,66.10
2018-06-09T20:31:37.059Z,84.83
2018-06-09T20:34:07.734Z,78.13
2018-06-09T20:36:38.543Z,63.30
2018-06-09T20:39:10.050Z,41.43
2018-06-09T20:41:41.477Z,42.87
2018-06-09T20:44:28.256Z,26.83
2018-06-09T20:47:01.180Z,29.17
2018-06-09T20:49:34.661Z,53.83
2018-06-09T20:52:07.533Z,55.20
2018-06-09T20:54:40.361Z,49.67
2018-06-09T20:57:09.899Z,76.33
2018-06-09T20:59:39.527Z,69.63
2018-06-09T21:02:08.942Z,63.47
2018-06-09T21:04:37.768Z,64.50
2018-06-09T21:07:07.481Z,41.17
2018-06-09T21:09:37.409Z,39.53
2018-06-09T21:14:27.329Z,37.70
2018-06-09T21:19:57.998Z,37.37
2018-06-09T21:22:28.133Z,44.10
2018-06-09T21:25:08.467Z,27.23
2018-06-09T21:27:55.323Z,25.40
2018-06-09T21:30:32.795Z,24.70
2018-06-09T21:33:08.076Z,32.10
2018-06-09T21:35:57.981Z,20.63
2018-06-09T21:38:28.794Z,28.60
2018-06-09T21:41:06.561Z,21.87
2018-06-09T21:43:43.532Z,32.63
2018-06-09T21:46:18.513Z,40.20
2018-06-09T21:48:50.576Z,32.90
2018-06-09T21:51:32.075Z,30.50
2018-06-09T21:54:02.477Z,22.73
2018-06-09T21:56:31.940Z,28.27
2018-06-09T21:59:02.468Z,18.20
2018-06-09T22:01:31.962Z,15.53
2018-06-09T22:04:02.483Z,14.13
2018-06-09T22:06:35.057Z,16.93
2018-06-09T22:09:06.159Z,13.20
2018-06-09T22:11:36.163Z,16.93
2018-06-09T22:14:05.898Z,16.97
2018-06-09T22:16:36.333Z,20.47
2018-06-09T22:19:05.814Z,20.40
2018-06-09T22:24:30.489Z,23.37
2018-06-09T22:27:00.413Z,18.80
2018-06-09T22:29:37.048Z,20.73
2018-06-09T22:32:07.201Z,25.67
2018-06-09T22:34:36.620Z,18.80
2018-06-09T22:37:06.462Z,19.43
2018-06-09T22:39:36.005Z,23.40
2018-06-09T22:42:06.126Z,25.00
2018-06-09T22:44:35.301Z,20.50
2018-06-09T22:47:04.947Z,18.03
2018-06-09T22:49:34.359Z,16.00
2018-06-09T22:52:03.664Z,15.20
2018-06-09T22:54:35.066Z,18.53
2018-06-09T22:57:04.863Z,17.20
2018-06-09T22:59:34.608Z,15.07
2018-06-09T23:02:04.313Z,17.40
2018-06-09T23:04:34.028Z,15.50
2018-06-09T23:07:04.478Z,18.20
2018-06-09T23:09:33.935Z,16.97
2018-06-09T23:12:03.657Z,15.93
2018-06-09T23:14:33.828Z,18.03
2018-06-09T23:17:03.597Z,15.50
2018-06-09T23:19:34.084Z,16.13
2018-06-09T23:22:04.019Z,16.33
2018-06-09T23:24:34.007Z,16.20
2018-06-09T23:27:03.372Z,16.00
2018-06-09T23:29:32.952Z,17.53
2018-06-09T23:32:02.733Z,15.20
2018-06-09T23:34:32.497Z,16.53
2018-06-09T23:37:06.220Z,14.63
2018-06-09T23:39:35.922Z,16.27
2018-06-09T23:45:09.954Z,16.73
2018-06-09T23:47:39.784Z,18.60
2018-06-09T23:50:28.804Z,16.37
2018-06-09T23:52:58.806Z,16.27
2018-06-09T23:55:29.775Z,16.83
2018-06-09T23:58:28.344Z,15.03
